DIRECCIÓN GENERAL DE AERONÁUTICA CIVIL
DIRECCIÓN METEOROLÓGICA DE CHILE
INFORMACIÓN METAR Y TAF

FIR PUERTO MONTT

Estación: SCTC
METAR SCTC 241200Z VRB03KT 6000 VCFG OVC010 01/01 Q1031=

TAF SCTC 241045Z 2412/2512 VRB01KT 2000 BR BKN002 TX08/2418Z TN04/ 2508Z BECMG 2414/2416 28006KT 9999 NSW SCT030 BKN060 BECMG 2421/2423 5000 -RA OVC025 TEMPO 2501/2506 VRB02KT 3000 RA OVC015=

Estación: SCVD
METAR SCVD 241200Z AUTO 00000KT 3800 BR OVC002 03/03 Q1030=

TAF SCVD 241044Z 2412/2500 VRB02KT 3000 BR BKN002 BKN050 TX08/2418Z TN06/2500Z BECMG 2414/2416 33006KT 9999 NSW SCT030 BKN060 BECMG 2418/2420 5000 -RA OVC025=

Estación: SCJO
METAR SCJO 232300Z VRB01KT 9999 SCT030 05/05 Q1031=

TAF SCJO 241042Z 2412/2500 25004KT 5000 -SHRA BKN015 OVC030 TX08/ 2418Z TN06/2500Z BECMG 2413/2415 35010KT 9999 OVC040 BECMG 2416/2418 5000 -RA OVC020 TEMPO 2420/2500 2000 RA OVC015=

Estación: SCTE
METAR SCTE 241200Z 34006KT 7000 VCSH BKN040 04/04 Q1028 NOSIG=

TAF SCTE 241040Z 2412/2512 35010KT 5000 -RA BKN015 OVC025 TX08/2418Z TN05/2509Z TEMPO 2416/2422 3000 RA BKN008 OVC015 BECMG 2500/2502 23006KT 5000 SHRA BKN017 BECMG 2505/2507 9999 SCT015 TEMPO 2510/2512 2000 BR SCT002=

Estación: SCON
METAR SCON 241200Z AUTO 04003KT CAVOK 05/05 Q1025=

TAF SCON 241039Z 2412/2500 35010KT 4000 -RA BKN010 OVC025 TX08/2418Z TN06/2500Z TEMPO 2415/2419 2000 RA BKN007 OVC017=

Estación: SCTN
METAR SCTN NIL=

TAF SCTN NIL=

Estación: SCFT
METAR SCFT 241200Z AUTO 28005KT 230V350 9999 VV/// 03/M00 Q1023=

TAF SCFT NIL=

Estación: SCAP
METAR SCAP 241200Z AUTO VRB01KT 9999 -SHRA OVC018 03/01 Q1028=

TAF SCAP NIL=

Estación: SCMK
METAR SCMK 232200Z 26006KT 9999 SCT015 07/04 Q1027=

TAF SCMK 241038Z 2412/2500 32010KT 5000 -RA BKN015 OVC025 TX07/2418Z TN06/2500Z TEMPO 2414/2418 3000 RA BKN006 OVC015 BECMG 2421/2423 08005KT 5000 -SHRA BKN015=

Estación: SCAS
METAR SCAS 182000Z 00000KT 9999 -RA SCT013 BKN026 OVC043 11/11 Q1014=

TAF SCAS NIL=

Estación: SCCY
METAR SCCY 241200Z 00000KT 9999 BKN033 03/00 Q1020=

TAF SCCY 241037Z 2412/2500 25007KT 9999 BKN035 TX07/2418Z TNM01/2500Z TEMPO 2414/2418 SCT035=

Estación: SCBA
METAR SCBA 241200Z 29017KT 9999 FEW040 SCT200 02/M02 Q1017=

TAF SCBA 241035Z 2412/2512 30015KT 9999 SCT040 TX06/2418Z TNM06/2510Z BECMG 2414/2416 30018G30KT BECMG 2500/2502 29010KT BKN030 PROB30 TEMPO 2506/2512 VRB02KT 5000 -SHSN BKN020=

Estación: SCCC
METAR SCCC 232100Z 32011KT 9999 FEW040 06/M07 Q1016=

TAF SCCC CECF 7687=

Estación: SCHR
METAR SCHR 232100Z 26006KT 9999 BKN030 03/M02 Q1017=

TAF SCHR 241035Z 2412/2500 27005KT 9999 SCT030 TNM01/2412Z TX03/2418Z TEMPO 2412/2416 VRB03KT CAVOK BECMG 2422/2500 24005KT=


Volver